createdAt,value
2022-09-27T00:01:41.618Z,15.48
2022-09-27T00:08:43.399Z,15.39
2022-09-27T00:15:45.043Z,15.34
2022-09-27T00:22:50.217Z,15.23
2022-09-27T00:29:52.288Z,15.24
2022-09-27T00:36:55.400Z,15.21
2022-09-27T00:43:58.458Z,15.24
2022-09-27T00:51:01.647Z,15.08
2022-09-27T00:58:04.647Z,15.09
2022-09-27T01:05:06.842Z,15.11
2022-09-27T01:12:19.444Z,15.09
2022-09-27T01:19:46.647Z,14.99
2022-09-27T01:27:16.378Z,15.01
2022-09-27T01:34:29.621Z,15.03
2022-09-27T01:41:53.874Z,15.00
2022-09-27T01:49:16.703Z,14.98
2022-09-27T01:56:19.295Z,14.98
2022-09-27T02:03:36.031Z,15.04
2022-09-27T02:10:56.463Z,15.04
2022-09-27T02:18:02.532Z,15.00
2022-09-27T02:25:10.262Z,15.07
2022-09-27T02:32:11.930Z,15.09
2022-09-27T02:39:13.590Z,15.09
2022-09-27T02:46:15.574Z,15.19
2022-09-27T02:53:49.567Z,15.18
2022-09-27T03:01:49.144Z,15.21
2022-09-27T03:09:02.961Z,15.23
2022-09-27T03:16:07.740Z,15.17
2022-09-27T03:23:26.418Z,15.14
2022-09-27T03:30:28.808Z,15.04
2022-09-27T03:37:30.793Z,15.15
2022-09-27T03:44:32.940Z,15.12
2022-09-27T03:51:34.554Z,15.12
2022-09-27T03:58:36.556Z,15.07
2022-09-27T04:05:40.650Z,15.06
2022-09-27T04:12:47.621Z,15.05
2022-09-27T04:19:49.632Z,15.01
2022-09-27T04:26:51.917Z,14.96
2022-09-27T04:33:58.754Z,14.99
2022-09-27T04:41:02.622Z,14.96
2022-09-27T04:48:08.145Z,14.90
2022-09-27T04:55:10.382Z,14.83
2022-09-27T05:02:12.481Z,14.81
2022-09-27T05:09:32.981Z,14.72
2022-09-27T05:16:36.206Z,14.68
2022-09-27T05:24:06.592Z,14.68
2022-09-27T05:31:08.325Z,14.72
2022-09-27T05:38:11.998Z,14.66
2022-09-27T05:45:16.497Z,14.53
2022-09-27T05:52:20.190Z,14.51
2022-09-27T05:59:24.236Z,14.60
2022-09-27T06:06:44.384Z,14.48
2022-09-27T06:13:47.089Z,14.45
2022-09-27T06:20:48.806Z,14.43
2022-09-27T06:27:51.816Z,14.30
2022-09-27T06:35:00.432Z,14.25
2022-09-27T06:42:02.462Z,14.28
2022-09-27T06:49:25.446Z,14.41
2022-09-27T06:56:27.044Z,14.33
2022-09-27T07:03:35.486Z,14.32
2022-09-27T07:11:05.032Z,14.26
2022-09-27T07:18:07.129Z,14.37
2022-09-27T07:25:09.190Z,14.42
2022-09-27T07:32:12.425Z,14.38
2022-09-27T07:39:14.278Z,14.51
2022-09-27T07:46:15.999Z,14.47
2022-09-27T07:53:28.876Z,14.42
2022-09-27T08:00:56.999Z,14.50
2022-09-27T08:07:58.810Z,14.48
2022-09-27T08:15:02.798Z,14.39
2022-09-27T08:22:04.602Z,14.53
2022-09-27T08:29:17.266Z,14.44
2022-09-27T08:36:25.289Z,14.59
2022-09-27T08:43:56.441Z,14.63
2022-09-27T08:50:58.977Z,14.68
2022-09-27T08:58:00.902Z,14.72
2022-09-27T09:05:08.047Z,14.69
2022-09-27T09:12:34.410Z,14.70
2022-09-27T09:20:04.142Z,14.78
2022-09-27T09:27:39.562Z,14.84
2022-09-27T09:34:58.629Z,14.91
2022-09-27T09:42:25.422Z,14.98
2022-09-27T09:49:30.136Z,15.02
2022-09-27T09:56:55.565Z,15.06
2022-09-27T10:03:57.332Z,15.16
2022-09-27T10:10:59.163Z,15.29
2022-09-27T10:18:04.196Z,15.38
2022-09-27T10:25:08.057Z,15.58
2022-09-27T10:32:31.363Z,15.68
2022-09-27T10:40:01.866Z,15.63
2022-09-27T10:47:08.090Z,15.83
2022-09-27T10:54:30.152Z,15.98
2022-09-27T11:01:43.423Z,16.44
2022-09-27T11:08:53.672Z,17.31
2022-09-27T11:16:04.564Z,17.17
2022-09-27T11:23:26.090Z,16.77
2022-09-27T11:30:34.885Z,16.72
2022-09-27T11:38:53.137Z,16.33
2022-09-27T11:46:20.842Z,15.99
2022-09-27T11:53:48.219Z,15.66
2022-09-27T12:01:14.412Z,14.81
2022-09-27T12:08:51.904Z,14.25
2022-09-27T12:15:53.774Z,14.18
2022-09-27T12:31:58.132Z,14.01
2022-09-27T12:39:05.541Z,14.07
2022-09-27T12:46:39.566Z,14.31
2022-09-27T12:54:24.184Z,14.62
2022-09-27T13:02:31.802Z,14.77
2022-09-27T13:09:43.158Z,14.99
2022-09-27T13:16:46.077Z,15.18
2022-09-27T13:23:50.398Z,15.09
2022-09-27T13:30:57.665Z,14.97
2022-09-27T13:38:00.461Z,15.05
2022-09-27T13:45:20.496Z,15.15
2022-09-27T13:52:35.145Z,15.02
2022-09-27T14:00:05.454Z,14.95
2022-09-27T14:07:34.769Z,15.00
2022-09-27T14:14:37.443Z,15.16
2022-09-27T14:21:39.536Z,15.26
2022-09-27T14:29:01.044Z,14.99
2022-09-27T14:36:27.718Z,15.13
2022-09-27T14:43:34.809Z,15.51
2022-09-27T14:50:36.481Z,15.47
2022-09-27T14:57:40.072Z,15.34
2022-09-27T15:04:43.886Z,15.19
2022-09-27T15:11:49.450Z,15.15
2022-09-27T15:19:07.043Z,15.09
2022-09-27T15:26:11.260Z,15.02
2022-09-27T15:33:23.518Z,14.90
2022-09-27T15:40:56.610Z,14.81
2022-09-27T15:48:23.533Z,14.80
2022-09-27T15:55:26.767Z,14.70
2022-09-27T16:02:28.363Z,14.58
2022-09-27T16:09:30.373Z,14.26
2022-09-27T16:16:32.052Z,14.08
2022-09-27T16:23:33.598Z,14.10
2022-09-27T16:30:35.158Z,14.13
2022-09-27T16:37:36.820Z,14.08
2022-09-27T16:44:38.429Z,14.10
2022-09-27T16:51:58.625Z,14.04
2022-09-27T16:59:04.409Z,13.98
2022-09-27T17:06:06.184Z,13.92
2022-09-27T17:13:07.782Z,13.81
2022-09-27T17:20:09.374Z,13.81
2022-09-27T17:27:10.933Z,13.65
2022-09-27T17:34:13.148Z,13.62
2022-09-27T17:41:15.427Z,13.65
2022-09-27T17:48:35.493Z,13.60
2022-09-27T17:55:37.055Z,13.60
2022-09-27T18:02:38.752Z,13.56
2022-09-27T18:09:40.424Z,13.54
2022-09-27T18:16:44.040Z,13.53
2022-09-27T18:23:45.676Z,13.48
2022-09-27T18:30:47.261Z,13.51
2022-09-27T18:37:48.818Z,13.47
2022-09-27T18:44:50.341Z,13.44
2022-09-27T18:51:52.009Z,13.42
2022-09-27T18:58:53.848Z,13.39
2022-09-27T19:06:05.697Z,13.32
2022-09-27T19:13:07.290Z,13.25
2022-09-27T19:20:09.650Z,13.23
2022-09-27T19:27:11.231Z,13.22
2022-09-27T19:34:13.026Z,13.18
2022-09-27T19:41:15.353Z,13.09
2022-09-27T19:48:17.017Z,13.06
2022-09-27T19:55:18.550Z,12.93
2022-09-27T20:02:20.158Z,12.86
2022-09-27T20:09:21.830Z,12.85
2022-09-27T20:16:24.070Z,12.81
2022-09-27T20:23:25.726Z,12.68
2022-09-27T20:30:27.287Z,12.60
2022-09-27T20:37:28.882Z,12.60
2022-09-27T20:44:31.837Z,12.55
2022-09-27T20:51:34.159Z,12.60
2022-09-27T20:58:35.769Z,12.63
2022-09-27T21:05:37.322Z,12.65
2022-09-27T21:12:38.867Z,12.57
2022-09-27T21:19:40.414Z,12.63
2022-09-27T21:26:41.979Z,12.61
2022-09-27T21:33:45.916Z,12.61
2022-09-27T21:41:14.678Z,12.61
2022-09-27T21:48:16.222Z,12.53
2022-09-27T21:55:17.814Z,12.51
2022-09-27T22:02:19.674Z,12.50
2022-09-27T22:09:22.107Z,12.45
2022-09-27T22:16:24.137Z,12.45
2022-09-27T22:23:26.094Z,12.42
2022-09-27T22:30:28.122Z,12.36
2022-09-27T22:37:29.678Z,12.34
2022-09-27T22:44:33.346Z,12.27
2022-09-27T22:51:34.896Z,12.25
2022-09-27T22:58:36.816Z,12.18
2022-09-27T23:05:38.359Z,12.14
2022-09-27T23:12:39.940Z,12.14
2022-09-27T23:19:41.509Z,12.11
2022-09-27T23:26:43.082Z,12.08
2022-09-27T23:33:46.279Z,12.10
2022-09-27T23:40:48.212Z,12.07
2022-09-27T23:47:49.855Z,12.16
2022-09-27T23:54:51.419Z,12.16
